Time;durP1;ratioP1;P1;durP2;ratioP2;P2;SDS_P1;SDS_P2;PMS_P1;PMS_P2;Temp;Humidity;BMP_temperature;BMP_pressure;BME280_temperature;BME280_humidity;BME280_pressure;Samples;Min_cycle;Max_cycle;Signal;HPM_P1;HPM_P2
2022/09/09 00:02:18;;;;;;;64.97;31.83;;;;;;;12.89;100.00;99933.09;7387253;19;20966;-52
2022/09/09 00:04:52;;;;;;;58.80;31.47;;;;;;;12.87;100.00;99924.44;7396954;19;20449;-52
2022/09/09 00:07:24;;;;;;;88.10;36.47;;;;;;;12.89;100.00;99918.44;7393689;19;20451;-57
2022/09/09 00:10:00;;;;;;;75.13;32.77;;;;;;;12.92;100.00;99928.00;7398998;19;20380;-57
2022/09/09 00:12:37;;;;;;;65.37;32.30;;;;;;;13.00;100.00;99916.06;7393691;19;20417;-52
2022/09/09 00:15:15;;;;;;;64.23;30.47;;;;;;;13.14;100.00;99912.84;7396638;19;20407;-55
2022/09/09 00:17:48;;;;;;;58.93;29.53;;;;;;;13.26;100.00;99901.81;7392401;19;20430;-52
2022/09/09 00:20:23;;;;;;;66.70;31.93;;;;;;;13.12;100.00;99904.19;7398617;19;20393;-57
2022/09/09 00:22:58;;;;;;;58.87;31.10;;;;;;;13.04;100.00;99899.75;7392218;19;20452;-53
2022/09/09 00:25:34;;;;;;;56.20;29.20;;;;;;;13.16;100.00;99901.66;7396395;19;20459;-55
2022/09/09 00:28:03;;;;;;;67.47;32.10;;;;;;;13.34;100.00;99895.06;7393051;19;20421;-54
2022/09/09 00:30:37;;;;;;;77.63;31.37;;;;;;;13.22;100.00;99895.69;7397838;19;20386;-57
2022/09/09 00:33:14;;;;;;;68.90;31.80;;;;;;;13.35;100.00;99887.28;7393234;19;20444;-54
2022/09/09 00:35:47;;;;;;;66.10;32.30;;;;;;;13.30;100.00;99881.19;7395171;19;20409;-49
2022/09/09 00:38:19;;;;;;;62.77;31.23;;;;;;;13.30;100.00;99881.19;7392448;19;20974;-55
2022/09/09 00:40:52;;;;;;;58.07;30.87;;;;;;;13.41;100.00;99880.47;7396511;19;20382;-56
2022/09/09 00:43:29;;;;;;;66.90;30.87;;;;;;;13.43;100.00;99878.78;7392133;19;20819;-53
2022/09/09 00:46:18;;;;;;;330.10;43.03;;;;;;;13.23;100.00;99868.97;7397539;19;20390;-59
2022/09/09 00:48:54;;;;;;;63.97;29.70;;;;;;;13.41;100.00;99870.09;7396708;19;20935;-54
2022/09/09 00:51:30;;;;;;;82.17;33.33;;;;;;;13.27;100.00;99867.31;7392175;19;20402;-55
2022/09/09 00:54:27;;;;;;;105.47;32.60;;;;;;;13.14;100.00;99866.22;7395689;19;20390;-52
2022/09/09 00:57:06;;;;;;;193.93;42.97;;;;;;;13.27;100.00;99873.34;7389101;19;20895;-53
2022/09/09 00:59:43;;;;;;;163.90;35.43;;;;;;;13.19;100.00;99880.97;7400638;19;20924;-51
2022/09/09 01:02:21;;;;;;;298.87;39.40;;;;;;;12.98;100.00;99884.09;7390727;19;20781;-52
2022/09/09 01:04:51;;;;;;;187.70;38.67;;;;;;;12.95;100.00;99886.63;7394842;19;20756;-52
2022/09/09 01:07:21;;;;;;;102.50;39.50;;;;;;;13.11;100.00;99882.56;7391255;19;20961;-56
2022/09/09 01:09:55;;;;;;;106.97;39.90;;;;;;;13.14;100.00;99892.13;7397039;19;20766;-50
2022/09/09 01:12:32;;;;;;;120.73;36.97;;;;;;;13.06;100.00;99890.28;7389516;19;20691;-52
2022/09/09 01:15:06;;;;;;;110.50;37.63;;;;;;;13.28;100.00;99890.63;7393537;19;20412;-55
2022/09/09 01:17:51;;;;;;;160.93;40.07;;;;;;;13.38;100.00;99881.28;7390857;19;20415;-52
2022/09/09 01:20:23;;;;;;;120.93;37.30;;;;;;;13.36;100.00;99877.81;7386852;19;20411;-51
2022/09/09 01:23:07;;;;;;;95.60;35.67;;;;;;;13.61;100.00;99866.16;7389972;19;20420;-52
2022/09/09 01:26:07;;;;;;;114.10;36.80;;;;;;;13.63;100.00;99866.16;7393872;19;20422;-54
2022/09/09 01:28:40;;;;;;;169.83;43.43;;;;;;;13.50;100.00;99863.38;7390547;19;20947;-53
2022/09/09 01:31:11;;;;;;;121.63;40.37;;;;;;;13.45;100.00;99864.13;7395744;19;20747;-52
2022/09/09 01:33:41;;;;;;;217.13;39.50;;;;;;;13.28;100.00;99862.13;7392827;19;20723;-50
2022/09/09 01:36:12;;;;;;;184.67;41.53;;;;;;;13.20;100.00;99866.31;7395091;19;20426;-54
2022/09/09 01:38:42;;;;;;;213.93;42.83;;;;;;;13.17;100.00;99871.47;7390571;19;20448;-52
2022/09/09 01:41:12;;;;;;;104.93;39.03;;;;;;;13.22;100.00;99869.81;7394715;19;20395;-50
2022/09/09 01:43:44;;;;;;;221.53;43.00;;;;;;;13.22;100.00;99867.22;7389401;19;20704;-56
2022/09/09 01:46:14;;;;;;;162.67;40.10;;;;;;;13.17;100.00;99871.47;7395194;19;20902;-51
2022/09/09 01:48:44;;;;;;;129.70;38.70;;;;;;;13.15;100.00;99878.31;7393783;19;20423;-54
2022/09/09 01:51:13;;;;;;;148.03;36.50;;;;;;;13.18;100.00;99884.41;7395316;19;20434;-51
2022/09/09 01:53:43;;;;;;;236.83;41.83;;;;;;;13.13;100.00;99877.44;7389267;19;20443;-53
2022/09/09 01:56:21;;;;;;;160.10;39.07;;;;;;;13.22;100.00;99874.97;7394884;19;20419;-53
2022/09/09 01:59:05;;;;;;;173.03;42.03;;;;;;;13.19;100.00;99864.59;7396074;19;20466;-51
2022/09/09 02:01:44;;;;;;;100.30;36.70;;;;;;;13.35;100.00;99866.56;7389564;19;20892;-50
2022/09/09 02:04:22;;;;;;;106.33;36.60;;;;;;;13.45;100.00;99848.59;7397620;19;20422;-53
2022/09/09 02:06:56;;;;;;;146.30;35.90;;;;;;;13.44;100.00;99842.53;7388821;19;20438;-57
2022/09/09 02:09:27;;;;;;;115.77;36.83;;;;;;;13.28;100.00;99843.16;7394844;19;20383;-48
2022/09/09 02:12:01;;;;;;;160.53;35.77;;;;;;;13.09;100.00;99843.69;7369655;19;20933;-52
2022/09/09 02:14:38;;;;;;;102.80;35.13;;;;;;;13.10;100.00;99857.53;7393253;19;20411;-55
2022/09/09 02:17:11;;;;;;;140.87;35.17;;;;;;;13.05;100.00;99854.88;7389246;19;20417;-51
2022/09/09 02:19:45;;;;;;;108.43;35.00;;;;;;;13.09;100.00;99861.81;7394573;19;20391;-53
2022/09/09 02:22:14;;;;;;;117.00;33.90;;;;;;;12.97;100.00;99871.97;7388801;19;20429;-50
2022/09/09 02:24:45;;;;;;;140.50;38.10;;;;;;;12.96;100.00;99878.00;7392137;19;20450;-54
2022/09/09 02:27:16;;;;;;;135.10;34.10;;;;;;;13.43;100.00;99863.25;7384000;19;20418;-51
2022/09/09 02:29:48;;;;;;;71.20;31.00;;;;;;;13.84;100.00;99852.63;7396475;19;20384;-53
2022/09/09 02:32:21;;;;;;;93.03;33.10;;;;;;;13.70;100.00;99836.03;7389468;19;20471;-55
2022/09/09 02:34:51;;;;;;;90.40;38.50;;;;;;;13.62;100.00;99831.59;7392183;19;20414;-50
2022/09/09 02:37:23;;;;;;;109.33;54.03;;;;;;;14.03;100.00;99825.25;7378235;19;20423;-55
2022/09/09 02:39:52;;;;;;;105.80;38.30;;;;;;;13.72;100.00;99818.75;7391923;19;20407;-52
2022/09/09 02:42:22;;;;;;;104.83;41.27;;;;;;;13.98;100.00;99798.38;7386783;19;20827;-54
2022/09/09 02:44:54;;;;;;;87.00;32.27;;;;;;;14.03;100.00;99801.03;7392750;19;20459;-55
2022/09/09 02:47:29;;;;;;;70.07;27.50;;;;;;;13.63;100.00;99793.59;7388519;19;20442;-51
2022/09/09 02:50:08;;;;;;;87.20;28.17;;;;;;;13.17;100.00;99798.94;7393474;19;20415;-52
2022/09/09 02:52:45;;;;;;;84.10;28.13;;;;;;;13.03;100.00;99820.28;7387198;19;20410;-53
2022/09/09 02:55:21;;;;;;;95.93;28.40;;;;;;;12.89;100.00;99824.38;7391488;19;20756;-58
2022/09/09 02:57:51;;;;;;;70.60;30.30;;;;;;;13.01;100.00;99840.13;7387412;19;20438;-55
2022/09/09 03:00:28;;;;;;;81.47;28.77;;;;;;;12.92;100.00;99846.00;7393017;19;20394;-58
2022/09/09 03:02:59;;;;;;;65.97;29.00;;;;;;;13.04;100.00;99847.94;7385507;19;20428;-56
2022/09/09 03:05:28;;;;;;;91.07;29.00;;;;;;;13.28;100.00;99844.00;7391398;19;20759;-57
2022/09/09 03:07:57;;;;;;;79.80;27.30;;;;;;;13.00;100.00;99838.38;7388086;19;20449;-55
2022/09/09 03:10:27;;;;;;;81.73;27.17;;;;;;;12.98;100.00;99842.66;7392887;19;20401;-55
2022/09/09 03:12:56;;;;;;;69.50;28.63;;;;;;;13.24;100.00;99840.50;7387079;19;20420;-54
2022/09/09 03:15:30;;;;;;;119.03;29.37;;;;;;;13.15;100.00;99849.81;7391056;19;20416;-54
2022/09/09 03:18:00;;;;;;;62.30;26.97;;;;;;;13.20;100.00;99845.59;7387172;19;20968;-52
2022/09/09 03:20:31;;;;;;;80.77;27.67;;;;;;;13.52;100.00;99840.09;7393056;19;20387;-60
2022/09/09 03:23:02;;;;;;;97.13;28.40;;;;;;;13.09;100.00;99838.50;7385462;19;20426;-58
2022/09/09 03:25:33;;;;;;;87.97;28.10;;;;;;;13.02;100.00;99847.03;7390969;19;20435;-54
2022/09/09 03:28:03;;;;;;;60.30;28.70;;;;;;;13.29;100.00;99848.34;7387455;19;21051;-57
2022/09/09 03:30:35;;;;;;;91.10;29.17;;;;;;;12.85;100.00;99849.34;7392413;19;20434;-53
2022/09/09 03:33:04;;;;;;;55.13;26.77;;;;;;;12.99;100.00;99852.19;7386306;19;20442;-50
2022/09/09 03:35:34;;;;;;;141.13;30.53;;;;;;;13.36;100.00;99842.44;7390345;19;20422;-56
2022/09/09 03:38:03;;;;;;;58.23;27.87;;;;;;;13.84;100.00;99836.22;7390858;19;20440;-57
2022/09/09 03:40:33;;;;;;;56.57;28.07;;;;;;;13.69;100.00;99819.59;7399622;19;20387;-57
2022/09/09 03:43:03;;;;;;;53.87;27.13;;;;;;;13.57;100.00;99807.34;7391864;19;20430;-56
2022/09/09 03:45:35;;;;;;;50.67;27.50;;;;;;;13.82;100.00;99796.44;7396975;19;20448;-51
2022/09/09 03:48:05;;;;;;;51.70;27.83;;;;;;;13.64;100.00;99788.44;7394425;19;20773;-56
2022/09/09 03:50:34;;;;;;;52.17;27.10;;;;;;;13.89;100.00;99780.97;7398934;19;20380;-56
2022/09/09 03:53:05;;;;;;;104.13;26.90;;;;;;;13.44;100.00;99776.91;7394259;19;20444;-59
2022/09/09 03:55:35;;;;;;;51.97;26.70;;;;;;;14.04;100.00;99764.75;7397192;19;20411;-49
2022/09/09 03:58:04;;;;;;;48.50;27.10;;;;;;;14.03;100.00;99754.34;7393805;19;20438;-54
2022/09/09 04:00:36;;;;;;;92.77;26.57;;;;;;;13.66;100.00;99748.69;7399138;19;20386;-56
2022/09/09 04:03:06;;;;;;;48.63;26.00;;;;;;;13.66;100.00;99747.00;7391218;19;20438;-49
2022/09/09 04:05:39;;;;;;;53.43;27.17;;;;;;;13.85;100.00;99745.47;7396767;19;20403;-59
2022/09/09 04:08:08;;;;;;;59.73;28.30;;;;;;;13.80;100.00;99749.78;7393401;19;20407;-55
2022/09/09 04:10:38;;;;;;;49.27;26.30;;;;;;;13.91;100.00;99752.47;7398843;19;20409;-54
2022/09/09 04:13:08;;;;;;;79.20;27.30;;;;;;;13.33;100.00;99767.22;7392306;19;20411;-56
2022/09/09 04:15:40;;;;;;;55.83;25.90;;;;;;;12.86;100.00;99801.03;7396442;19;20491;-54
2022/09/09 04:18:09;;;;;;;59.20;27.00;;;;;;;12.86;100.00;99806.22;7392604;19;20450;-57
2022/09/09 04:20:39;;;;;;;58.43;26.53;;;;;;;12.70;100.00;99831.81;7398227;19;20407;-54
2022/09/09 04:23:09;;;;;;;62.37;25.90;;;;;;;12.54;100.00;99844.47;7391118;19;20431;-56
2022/09/09 04:25:38;;;;;;;48.63;25.97;;;;;;;12.65;100.00;99856.72;7395936;19;20437;-54
2022/09/09 04:28:08;;;;;;;55.10;28.07;;;;;;;12.67;100.00;99861.09;7391786;19;20800;-53
2022/09/09 04:30:40;;;;;;;55.17;26.77;;;;;;;12.66;100.00;99871.41;7398070;19;20406;-56
2022/09/09 04:33:10;;;;;;;60.60;26.53;;;;;;;12.48;100.00;99880.56;7392873;19;20424;-56
2022/09/09 04:35:40;;;;;;;48.50;26.37;;;;;;;12.76;100.00;99891.44;7395584;19;20412;-55
2022/09/09 04:38:10;;;;;;;52.97;26.17;;;;;;;12.52;100.00;99903.06;7395172;19;20439;-55
2022/09/09 04:40:42;;;;;;;51.43;27.50;;;;;;;12.49;100.00;99908.19;7397986;19;20404;-51
2022/09/09 04:43:12;;;;;;;51.70;26.90;;;;;;;12.31;100.00;99918.16;7390862;19;20783;-55
2022/09/09 04:45:46;;;;;;;50.30;25.30;;;;;;;12.50;100.00;99925.44;7395309;19;20420;-52
2022/09/09 04:48:16;;;;;;;48.43;25.53;;;;;;;12.58;100.00;99928.19;7389230;19;20767;-58
2022/09/09 04:50:46;;;;;;;65.00;28.63;;;;;;;12.53;100.00;99917.75;7395809;19;20854;-53
2022/09/09 04:53:15;;;;;;;61.53;27.77;;;;;;;12.63;100.00;99923.09;7391010;19;20419;-55
2022/09/09 04:55:44;;;;;;;75.97;28.77;;;;;;;12.47;100.00;99929.69;7395018;19;20415;-56
2022/09/09 04:58:14;;;;;;;54.03;27.43;;;;;;;12.57;100.00;99931.63;7389449;19;20454;-55
2022/09/09 05:00:46;;;;;;;59.40;26.67;;;;;;;12.66;100.00;99926.63;7397182;19;20411;-59
2022/09/09 05:03:15;;;;;;;52.50;26.67;;;;;;;12.48;100.00;99927.13;7389726;19;20440;-57
2022/09/09 05:05:45;;;;;;;46.30;25.13;;;;;;;12.40;100.00;99928.66;7394797;19;20412;-57
2022/09/09 05:08:14;;;;;;;52.80;25.00;;;;;;;12.48;100.00;99927.13;7391256;19;20415;-57
2022/09/09 05:10:44;;;;;;;53.80;25.67;;;;;;;12.59;100.00;99921.28;7397660;19;20423;-54
2022/09/09 05:13:13;;;;;;;50.83;24.93;;;;;;;12.61;100.00;99917.91;7390043;19;20958;-52
2022/09/09 05:15:54;;;;;;;46.03;25.00;;;;;;;12.68;100.00;99914.59;7394635;19;20484;-52
2022/09/09 05:18:24;;;;;;;43.10;22.20;;;;;;;12.81;100.00;99920.88;7390973;19;20427;-47
2022/09/09 05:20:53;;;;;;;43.50;23.37;;;;;;;12.59;100.00;99918.69;7396337;19;20378;-50
2022/09/09 05:23:23;;;;;;;41.63;21.43;;;;;;;12.70;100.00;99919.78;7388921;19;20794;-49
2022/09/09 05:25:59;;;;;;;39.20;20.80;;;;;;;12.46;100.00;99918.44;7394265;19;20436;-51
2022/09/09 05:28:29;;;;;;;38.10;21.37;;;;;;;12.53;100.00;99917.75;7390974;19;20422;-53
2022/09/09 05:31:07;;;;;;;39.37;21.37;;;;;;;12.46;100.00;99926.22;7396639;19;20411;-54
2022/09/09 05:33:40;;;;;;;40.30;19.30;;;;;;;12.55;100.00;99923.84;7389311;19;20427;-54
2022/09/09 05:36:13;;;;;;;33.23;20.03;;;;;;;12.55;100.00;99926.41;7395643;19;20410;-50
2022/09/09 05:38:43;;;;;;;38.37;20.73;;;;;;;12.63;100.00;99917.94;7390675;19;20419;-55
2022/09/09 05:41:15;;;;;;;31.70;18.67;;;;;;;12.47;100.00;99935.75;7395398;19;20384;-55
2022/09/09 05:43:46;;;;;;;38.83;20.13;;;;;;;12.47;100.00;99932.28;7395447;19;21020;-58
2022/09/09 05:46:19;;;;;;;31.67;19.60;;;;;;;12.64;100.00;99932.63;7395719;19;20403;-57
2022/09/09 05:48:50;;;;;;;34.17;18.87;;;;;;;12.67;100.00;99937.88;7394868;19;20412;-55
2022/09/09 05:51:21;;;;;;;33.33;19.03;;;;;;;12.47;100.00;99935.75;7389519;19;20754;-54
2022/09/09 05:53:51;;;;;;;114.37;76.40;;;;;;;12.64;100.00;99937.78;7393721;19;20442;-54
2022/09/09 05:56:23;;;;;;;25.97;17.10;;;;;;;12.77;100.00;99934.59;7389651;19;20422;-54
2022/09/09 05:58:53;;;;;;;26.17;16.40;;;;;;;12.49;100.00;99940.94;7394854;19;20387;-57
2022/09/09 06:01:26;;;;;;;27.70;17.00;;;;;;;12.45;100.00;99947.75;7389930;19;20404;-57
2022/09/09 06:03:56;;;;;;;27.17;16.67;;;;;;;12.47;100.00;99946.09;7397322;19;20823;-56
2022/09/09 06:06:27;;;;;;;33.03;21.40;;;;;;;12.60;100.00;99952.38;7390256;19;20388;-58
2022/09/09 06:08:59;;;;;;;28.17;18.47;;;;;;;12.52;100.00;99953.94;7394248;19;20778;-57
2022/09/09 06:11:30;;;;;;;25.80;15.60;;;;;;;12.63;100.00;99947.28;7389755;19;20398;-54
2022/09/09 06:14:00;;;;;;;36.27;18.30;;;;;;;12.83;100.00;99955.44;7393242;19;20425;-58
2022/09/09 06:16:33;;;;;;;26.97;17.50;;;;;;;13.26;100.00;99951.91;7390222;19;20401;-53
2022/09/09 06:19:03;;;;;;;30.63;16.23;;;;;;;13.14;100.00;99954.28;7394315;19;20414;-54
2022/09/09 06:21:36;;;;;;;22.33;14.27;;;;;;;13.04;100.00;99951.53;7389134;19;20794;-55
2022/09/09 06:24:07;;;;;;;22.17;15.53;;;;;;;12.96;100.00;99950.50;7392948;19;20796;-60
2022/09/09 06:26:37;;;;;;;23.67;14.83;;;;;;;12.82;100.00;99952.84;7388996;19;20388;-55
2022/09/09 06:29:07;;;;;;;23.70;14.90;;;;;;;12.76;100.00;99952.72;7397917;19;20397;-52
2022/09/09 06:31:40;;;;;;;28.10;15.27;;;;;;;12.71;100.00;99970.72;7393559;19;20387;-54
2022/09/09 06:34:11;;;;;;;22.30;14.83;;;;;;;12.74;100.00;99978.56;7392930;19;20415;-58
2022/09/09 06:36:41;;;;;;;21.47;13.03;;;;;;;12.72;100.00;99982.81;7388570;19;20404;-53
2022/09/09 06:39:11;;;;;;;21.33;14.70;;;;;;;12.73;100.00;99992.34;7393672;19;20398;-49
2022/09/09 06:41:44;;;;;;;19.70;14.03;;;;;;;12.75;100.00;99990.66;7388826;19;20797;-59
2022/09/09 06:44:15;;;;;;;21.30;14.33;;;;;;;12.78;100.00;99998.47;7391902;19;20451;-55
2022/09/09 06:46:47;;;;;;;23.47;14.83;;;;;;;12.90;100.00;99990.09;7387870;19;20441;-59
2022/09/09 06:49:17;;;;;;;23.13;15.70;;;;;;;12.97;100.00;99996.25;7393343;19;20390;-51
2022/09/09 06:51:46;;;;;;;26.63;14.77;;;;;;;12.97;100.00;100004.00;7387729;19;20436;-54
2022/09/09 06:54:16;;;;;;;29.20;16.10;;;;;;;13.06;100.00;99993.84;7392212;19;20451;-53
2022/09/09 06:56:45;;;;;;;23.13;13.63;;;;;;;13.01;100.00;99999.75;7387568;19;20926;-50
2022/09/09 06:59:14;;;;;;;23.40;14.23;;;;;;;13.07;100.00;99992.13;7393116;19;20904;-57
2022/09/09 07:01:46;;;;;;;23.67;16.07;;;;;;;13.14;100.00;99980.16;7392727;19;20392;-59
2022/09/09 07:04:21;;;;;;;22.20;12.87;;;;;;;13.19;100.00;99988.91;7388218;19;20981;-57
2022/09/09 07:06:52;;;;;;;23.10;12.83;;;;;;;13.30;100.00;99992.56;7388364;19;20413;-57
2022/09/09 07:09:22;;;;;;;22.27;13.00;;;;;;;13.35;100.00;99985.72;7388119;19;20420;-57
2022/09/09 07:11:53;;;;;;;18.67;12.30;;;;;;;13.45;100.00;99985.91;7390432;19;20412;-51
2022/09/09 07:14:22;;;;;;;20.03;11.87;;;;;;;13.50;100.00;99987.75;7398519;19;20417;-56
2022/09/09 07:16:54;;;;;;;20.30;11.73;;;;;;;13.62;100.00;99983.63;7401336;19;20713;-52
2022/09/09 07:19:28;;;;;;;22.50;12.03;;;;;;;13.60;100.00;99985.34;7400082;19;20447;-60
2022/09/09 07:21:57;;;;;;;17.97;11.33;;;;;;;13.71;100.00;99978.63;7394709;19;21453;-56
2022/09/09 07:24:30;;;;;;;18.87;12.00;;;;;;;13.79;100.00;99991.69;7398404;19;20442;-52
2022/09/09 07:26:59;;;;;;;16.10;10.57;;;;;;;13.91;100.00;99986.69;7394609;19;20420;-54
2022/09/09 07:29:29;;;;;;;15.60;10.60;;;;;;;13.93;100.00;99983.28;7400094;19;20410;-56
2022/09/09 07:32:02;;;;;;;17.27;9.90;;;;;;;14.17;100.00;99975.00;7394967;19;20778;-55
2022/09/09 07:34:31;;;;;;;16.93;10.60;;;;;;;14.28;100.00;99975.13;7398131;19;20416;-54
2022/09/09 07:37:01;;;;;;;16.63;10.30;;;;;;;14.30;100.00;99973.44;7394298;19;20430;-55
2022/09/09 07:39:30;;;;;;;12.83;9.23;;;;;;;14.28;100.00;99957.88;7399748;19;20405;-54
2022/09/09 07:42:00;;;;;;;16.30;9.73;;;;;;;14.29;100.00;99962.19;7395287;19;20443;-56
2022/09/09 07:44:29;;;;;;;13.77;10.00;;;;;;;14.32;100.00;99946.66;7397775;19;20440;-54
2022/09/09 07:47:01;;;;;;;15.87;10.13;;;;;;;14.50;100.00;99949.50;7394004;19;21196;-53
2022/09/09 07:49:31;;;;;;;29.43;19.93;;;;;;;14.68;100.00;99944.50;7399536;19;20388;-53
2022/09/09 07:52:02;;;;;;;16.07;10.50;;;;;;;14.76;100.00;99928.19;7394319;19;20411;-57
2022/09/09 07:54:32;;;;;;;16.17;9.30;;;;;;;14.70;100.00;99929.84;7397588;19;20419;-57
2022/09/09 07:57:03;;;;;;;14.10;10.17;;;;;;;14.61;100.00;99924.50;7393652;19;20933;-54
2022/09/09 07:59:33;;;;;;;18.13;9.97;;;;;;;14.74;100.00;99917.78;7399028;19;20941;-55
2022/09/09 08:02:06;;;;;;;9.30;8.27;;;;;;;14.60;100.00;99925.38;7391288;19;20430;-58
2022/09/09 08:04:35;;;;;;;23.13;15.30;;;;;;;14.75;100.00;99921.25;7397837;19;20764;-52
2022/09/09 08:07:06;;;;;;;10.73;7.70;;;;;;;14.66;100.00;99928.03;7393618;19;20440;-51
2022/09/09 08:09:35;;;;;;;10.27;7.10;;;;;;;14.68;100.00;99920.28;7401363;19;20414;-51
2022/09/09 08:12:06;;;;;;;9.77;6.20;;;;;;;14.53;100.00;99916.66;7393233;19;20418;-56
2022/09/09 08:14:35;;;;;;;12.50;6.00;;;;;;;14.57;100.00;99920.16;7397001;19;20926;-53
2022/09/09 08:17:07;;;;;;;6.30;5.30;;;;;;;14.58;100.00;99925.34;7393390;19;21253;-54
2022/09/09 08:19:37;;;;;;;12.50;4.80;;;;;;;14.47;100.00;99926.09;7398950;19;20380;-58
2022/09/09 08:22:07;;;;;;;8.03;4.50;;;;;;;14.54;100.00;99926.19;7395834;19;20407;-56
2022/09/09 08:24:36;;;;;;;8.33;4.13;;;;;;;14.62;100.00;99930.59;7393848;19;20538;-54
2022/09/09 08:27:06;;;;;;;9.87;4.53;;;;;;;14.68;100.00;99934.13;7390593;19;20415;-58
2022/09/09 08:29:37;;;;;;;8.20;5.03;;;;;;;14.70;100.00;99937.63;7402827;19;20396;-58
2022/09/09 08:32:09;;;;;;;9.33;5.17;;;;;;;14.85;100.00;99936.06;7393005;19;20411;-55
2022/09/09 08:34:40;;;;;;;8.83;5.33;;;;;;;15.01;100.00;99950.09;7396173;19;20444;-54
2022/09/09 08:37:09;;;;;;;7.80;4.53;;;;;;;14.94;100.00;99946.59;7392184;19;20407;-58
2022/09/09 08:39:39;;;;;;;8.37;5.23;;;;;;;15.07;100.00;99951.91;7398077;19;20380;-60
2022/09/09 08:42:37;;;;;;;10.47;5.37;;;;;;;15.24;100.00;99960.72;7392333;19;20780;-56
2022/09/09 08:45:23;;;;;;;8.80;4.43;;;;;;;15.35;100.00;99967.75;7395752;19;20436;-54
2022/09/09 08:48:05;;;;;;;11.10;4.57;;;;;;;15.35;100.00;99972.97;7392943;19;20981;-56
2022/09/09 08:50:38;;;;;;;7.40;4.27;;;;;;;15.34;100.00;99973.81;7397743;19;20407;-56
2022/09/09 08:53:12;;;;;;;9.33;4.00;;;;;;;15.34;100.00;99977.28;7391606;19;20439;-56
2022/09/09 08:55:46;;;;;;;9.07;4.40;;;;;;;15.34;100.00;99986.81;7395132;19;20428;-58
2022/09/09 08:58:18;;;;;;;13.40;4.07;;;;;;;15.39;100.00;100000.72;7391192;19;20445;-52
2022/09/09 09:01:05;;;;;;;5.30;4.13;;;;;;;15.48;100.00;100002.56;7397558;19;20390;-53
2022/09/09 09:03:45;;;;;;;5.60;3.63;;;;;;;15.60;100.00;100014.78;7391329;19;20778;-60
2022/09/09 09:06:26;;;;;;;6.80;3.53;;;;;;;15.62;100.00;100023.47;7395575;19;20395;-55
2022/09/09 09:09:02;;;;;;;6.50;3.67;;;;;;;15.73;100.00;100027.03;7396279;19;20409;-54
2022/09/09 09:11:38;;;;;;;6.30;3.27;;;;;;;15.87;100.00;100039.28;7391639;19;20733;-57
2022/09/09 09:14:13;;;;;;;9.10;2.97;;;;;;;15.96;100.00;100042.00;7395543;19;20417;-56
2022/09/09 09:16:48;;;;;;;6.40;3.00;;;;;;;16.00;100.00;100046.34;7391546;19;20413;-57
2022/09/09 09:19:22;;;;;;;7.23;3.30;;;;;;;16.00;100.00;100059.38;7396239;19;20390;-53
2022/09/09 09:21:56;;;;;;;5.23;2.67;;;;;;;16.05;100.00;100070.69;7391589;19;20404;-55
2022/09/09 09:24:32;;;;;;;8.43;3.13;;;;;;;16.31;100.00;100070.00;7394793;19;20442;-59
2022/09/09 09:27:03;;;;;;;7.40;3.63;;;;;;;16.30;100.00;100083.88;7389007;19;20415;-54
2022/09/09 09:29:32;;;;;;;6.93;3.43;;;;;;;16.42;100.00;100085.69;7396158;19;20385;-54
2022/09/09 09:32:21;;;;;;;6.60;3.70;;;;;;;16.33;100.00;100080.44;7391002;19;20966;-55
2022/09/09 09:34:55;;;;;;;7.80;4.20;;;;;;;16.41;100.00;100089.16;7393179;19;20770;-57
2022/09/09 09:37:29;;;;;;;7.67;4.57;;;;;;;16.50;100.00;100096.16;7390608;19;20414;-56
2022/09/09 09:40:11;;;;;;;9.93;4.87;;;;;;;16.41;100.00;100096.97;7395940;19;20410;-59
2022/09/09 09:42:41;;;;;;;9.90;3.80;;;;;;;16.38;100.00;100109.97;7389585;19;20786;-54
2022/09/09 09:45:15;;;;;;;8.80;4.47;;;;;;;16.46;100.00;100117.84;7393914;19;20404;-53
2022/09/09 09:47:44;;;;;;;12.43;4.00;;;;;;;16.50;100.00;100119.59;7390396;19;20454;-54
2022/09/09 09:50:22;;;;;;;5.20;2.30;;;;;;;16.49;100.00;100132.59;7400087;19;20389;-59
2022/09/09 09:52:57;;;;;;;6.40;2.10;;;;;;;16.55;100.00;100132.66;7389755;19;20415;-52
2022/09/09 09:55:27;;;;;;;6.37;3.13;;;;;;;16.66;100.00;100136.22;7393500;19;20932;-60
2022/09/09 09:57:57;;;;;;;6.90;2.63;;;;;;;16.93;100.00;100139.88;7389964;19;20799;-57
2022/09/09 10:00:28;;;;;;;5.03;2.27;;;;;;;16.86;100.00;100140.66;7395495;19;20406;-59
2022/09/09 10:02:57;;;;;;;6.57;3.10;;;;;;;17.01;100.00;100147.69;7389544;19;20421;-55
2022/09/09 10:05:30;;;;;;;8.83;4.20;;;;;;;17.26;100.00;100142.66;7392856;19;20426;-56
2022/09/09 10:08:12;;;;;;;8.10;4.00;;;;;;;17.62;100.00;100146.25;7389927;19;20976;-58
2022/09/09 10:11:25;;;;;;;9.60;4.40;;;;;;;17.83;100.00;100134.13;7394983;19;20406;-55
2022/09/09 10:14:03;;;;;;;6.73;3.90;;;;;;;17.72;100.00;100143.66;7394324;19;20463;-54
2022/09/09 10:16:44;;;;;;;8.00;3.47;;;;;;;17.49;100.00;100157.53;7389652;19;20387;-56
2022/09/09 10:19:16;;;;;;;6.37;3.20;;;;;;;17.45;100.00;100172.28;7392228;19;20411;-52
2022/09/09 10:22:09;;;;;;;7.90;3.70;;;;;;;17.86;100.00;100159.34;7389207;19;20416;-55
2022/09/09 10:25:01;;;;;;;5.87;2.70;;;;;;;17.89;100.00;100169.81;7397545;19;20423;-57
2022/09/09 10:27:36;;;;;;;4.20;2.60;;;;;;;18.03;100.00;100183.75;7388048;19;20446;-56
2022/09/09 10:30:16;;;;;;;4.40;2.20;;;;;;;17.74;100.00;100218.44;7394436;19;20724;-59
2022/09/09 10:32:52;;;;;;;5.53;2.37;;;;;;;17.80;100.00;100233.28;7390107;19;20410;-60
2022/09/09 10:35:30;;;;;;;4.30;2.13;;;;;;;17.72;100.00;100235.84;7392062;19;20401;-51
2022/09/09 10:38:23;;;;;;;19.97;13.93;;;;;;;17.82;100.00;100231.53;7389122;19;20422;-54
2022/09/09 10:41:09;;;;;;;9.37;2.40;;;;;;;18.03;100.00;100232.47;7391414;19;21248;-55
2022/09/09 10:43:50;;;;;;;3.20;1.80;;;;;;;18.13;100.00;100247.31;7390114;19;20434;-57
2022/09/09 10:46:27;;;;;;;4.73;1.80;;;;;;;18.14;100.00;100261.25;7389239;19;20418;-61
2022/09/09 10:49:06;;;;;;;4.20;2.47;;;;;;;18.11;100.00;100290.81;7392222;19;20801;-55
2022/09/09 10:51:40;;;;;;;7.83;2.00;;;;;;;18.19;100.00;100296.94;7392289;19;20431;-53
2022/09/09 10:54:28;;;;;;;6.07;2.57;;;;;;;18.57;100.00;100299.63;7391846;19;20429;-59
2022/09/09 10:57:00;;;;;;;11.60;6.77;;;;;;;18.95;100.00;100285.72;7387638;19;20422;-56
2022/09/09 10:59:32;;;;;;;4.80;1.80;;;;;;;18.96;100.00;100283.94;7396513;19;21072;-56
2022/09/09 11:02:06;;;;;;;3.40;1.70;;;;;;;18.86;100.00;100322.28;7387635;19;20552;-55
2022/09/09 11:04:38;;;;;;;9.43;5.47;;;;;;;18.95;100.00;100322.31;7391772;19;20454;-53
2022/09/09 11:07:10;;;;;;;3.67;1.50;;;;;;;18.69;100.00;100337.94;7386923;19;20418;-53
2022/09/09 11:09:47;;;;;;;5.90;1.60;;;;;;;18.55;100.00;100344.03;7393278;19;20384;-56
2022/09/09 11:12:21;;;;;;;2.87;1.70;;;;;;;18.36;100.00;100345.72;7387459;19;20413;-57
2022/09/09 11:14:53;;;;;;;2.70;1.70;;;;;;;18.36;100.00;100343.13;7391221;19;20936;-56
2022/09/09 11:17:26;;;;;;;8.10;3.97;;;;;;;18.47;100.00;100333.56;7389622;19;20414;-57
2022/09/09 11:19:57;;;;;;;5.43;2.10;;;;;;;18.31;100.00;100334.41;7392906;19;20421;-60
2022/09/09 11:22:31;;;;;;;5.03;3.80;;;;;;;18.41;100.00;100315.25;7386050;19;20399;-57
2022/09/09 11:25:07;;;;;;;9.80;4.23;;;;;;;18.62;100.00;100297.91;7390625;19;20426;-56
2022/09/09 11:27:42;;;;;;;7.73;4.87;;;;;;;18.84;100.00;100284.84;7386667;19;20486;-61
2022/09/09 11:30:20;;;;;;;6.53;1.87;;;;;;;18.73;100.00;100301.38;7392245;19;20413;-49
2022/09/09 11:33:33;;;;;;;7.30;2.13;;;;;;;18.42;100.00;100319.63;7373043;19;20510;-54
2022/09/09 11:36:19;;;;;;;3.20;1.40;;;;;;;18.22;100.00;100349.13;7391913;19;20388;-56
2022/09/09 11:38:51;;;;;;;5.80;2.93;;;;;;;18.34;100.00;100343.09;7391588;19;20445;-52
2022/09/09 11:41:24;;;;;;;5.60;1.80;;;;;;;18.55;100.00;100349.25;7385664;19;20379;-54